Union Trader — SVAX6 — position and weather

sailwx.info

Track history (hours):
 
Tides and Currents Weather Stations Pressure Air Temp Water Temp Dewpoint Dewpoint Depression Visibility Wind Speed Wind Dir Waves Ship Positions

Union Trader

Last reported at 2014-Jun-07 14:32 UTC. Time now 2014-Jul-24 05:54 UTC.
Position N 25°07' E 122°17'.
Warning: this ship's position is 46 days out of date.

Length 190 m; draft 8.8 m.

Type: Cargo ship. MMSI: 240982000.

Date/timePositionNaut miles runAvg speedWind from/ knotsBaromVisibWave heightAir tempDewpointWater temp
2014-Jun-07 14:32N 25°07' E 122°17'33113.6
2014-Jun-06 14:13N 30°36' E 123°06'1314.2
2014-Jun-06 13:19N 30°47' E 122°59'  
2014-May-31 17:33N 31°18' E 121°47'7 7.5
2014-May-31 16:33N 31°21' E 121°39'9 8.7
2014-May-31 15:33N 31°25' E 121°30'10 9.6
2014-May-31 14:33N 31°32' E 121°21'1414.2
2014-May-31 13:34N 31°41' E 121°10'1312.7
2014-May-31 12:33N 31°47' E 120°56'1414.0
2014-May-31 11:34N 31°60' E 120°49'1212.4
2014-May-31 10:33N 32°02' E 120°35'10 9.7
2014-May-31 09:33N 32°01' E 120°23'1111.5
2014-May-31 08:33N 31°56' E 120°11'1211.6
2014-May-31 07:33N 32°00' E 119°59'1514.4
2014-May-31 06:30N 32°14' E 119°53'  
Track history (hours):
 
Tides and Currents Weather Stations Pressure Air Temp Water Temp Dewpoint Dewpoint Depression Visibility Wind Speed Wind Dir Waves Ship Positions

Union Trader

Last reported at 2014-Jun-07 14:32 UTC. Time now 2014-Jul-24 05:54 UTC.
Position N 25°07' E 122°17'.
Warning: this ship's position is 46 days out of date.

Length 190 m; draft 8.8 m.

Type: Cargo ship. MMSI: 240982000.

Date/timePositionNaut miles runAvg speedWind from/ knotsBaromVisibWave heightAir tempDewpointWater temp
2014-Jun-07 14:32N 25°07' E 122°17'33113.6
2014-Jun-06 14:13N 30°36' E 123°06'1314.2
2014-Jun-06 13:19N 30°47' E 122°59'  
2014-May-31 17:33N 31°18' E 121°47'7 7.5
2014-May-31 16:33N 31°21' E 121°39'9 8.7
2014-May-31 15:33N 31°25' E 121°30'10 9.6
2014-May-31 14:33N 31°32' E 121°21'1414.2
2014-May-31 13:34N 31°41' E 121°10'1312.7
2014-May-31 12:33N 31°47' E 120°56'1414.0
2014-May-31 11:34N 31°60' E 120°49'1212.4
2014-May-31 10:33N 32°02' E 120°35'10 9.7
2014-May-31 09:33N 32°01' E 120°23'1111.5
2014-May-31 08:33N 31°56' E 120°11'1211.6
2014-May-31 07:33N 32°00' E 119°59'1514.4
2014-May-31 06:30N 32°14' E 119°53'  

Dump ship's entire track history